createdAt,value
2022-09-09T00:00:50.568Z,89.24
2022-09-09T00:03:26.246Z,88.06
2022-09-09T00:05:52.768Z,88.15
2022-09-09T00:08:26.443Z,88.00
2022-09-09T00:11:00.079Z,87.50
2022-09-09T00:13:34.377Z,87.66
2022-09-09T00:16:10.865Z,89.12
2022-09-09T00:18:59.643Z,88.42
2022-09-09T00:21:37.970Z,87.94
2022-09-09T00:24:31.060Z,88.12
2022-09-09T00:27:02.482Z,86.31
2022-09-09T00:29:36.562Z,87.68
2022-09-09T00:32:19.764Z,87.54
2022-09-09T00:35:19.021Z,88.90
2022-09-09T00:37:48.296Z,87.77
2022-09-09T00:40:24.906Z,87.07
2022-09-09T00:43:01.969Z,86.93
2022-09-09T00:45:48.170Z,88.40
2022-09-09T00:48:14.670Z,87.55
2022-09-09T00:51:08.414Z,86.75
2022-09-09T00:53:52.866Z,86.22
2022-09-09T00:56:22.714Z,85.06
2022-09-09T00:59:20.975Z,86.95
2022-09-09T01:01:47.644Z,86.28
2022-09-09T01:04:21.441Z,87.04
2022-09-09T01:06:53.233Z,87.17
2022-09-09T01:09:56.749Z,86.98
2022-09-09T01:12:35.678Z,86.43
2022-09-09T01:15:12.891Z,86.60
2022-09-09T01:17:50.193Z,86.84
2022-09-09T01:20:27.368Z,87.28
2022-09-09T01:23:15.766Z,86.93
2022-09-09T01:25:45.209Z,86.54
2022-09-09T01:28:15.221Z,86.19
2022-09-09T01:30:43.100Z,87.41
2022-09-09T01:33:15.056Z,87.14
2022-09-09T01:35:48.169Z,88.33
2022-09-09T01:38:15.662Z,88.04
2022-09-09T01:40:42.164Z,87.58
2022-09-09T01:43:08.740Z,86.72
2022-09-09T01:45:35.548Z,87.11
2022-09-09T01:48:03.840Z,86.69
2022-09-09T01:50:30.503Z,87.05
2022-09-09T01:52:59.234Z,86.60
2022-09-09T01:55:36.846Z,86.45
2022-09-09T01:58:06.316Z,86.90
2022-09-09T02:00:33.577Z,87.46
2022-09-09T02:03:12.395Z,86.71
2022-09-09T02:05:59.068Z,85.28
2022-09-09T02:08:30.245Z,86.48
2022-09-09T02:11:02.963Z,85.11
2022-09-09T02:13:30.372Z,85.57
2022-09-09T02:16:01.244Z,86.76
2022-09-09T02:18:42.224Z,87.90
2022-09-09T02:21:08.964Z,87.93
2022-09-09T02:23:36.229Z,88.14
2022-09-09T02:26:05.113Z,87.55
2022-09-09T02:28:33.317Z,87.26
2022-09-09T02:31:00.343Z,86.88
2022-09-09T02:33:30.076Z,86.73
2022-09-09T02:36:02.784Z,87.20
2022-09-09T02:38:32.691Z,86.67
2022-09-09T02:40:59.669Z,86.38
2022-09-09T02:43:26.141Z,87.08
2022-09-09T02:46:15.444Z,85.95
2022-09-09T02:48:57.069Z,87.61
2022-09-09T02:51:44.437Z,86.94
2022-09-09T02:54:32.148Z,86.13
2022-09-09T02:57:06.337Z,87.71
2022-09-09T02:59:33.188Z,87.99
2022-09-09T03:01:59.772Z,86.47
2022-09-09T03:04:26.361Z,86.56
2022-09-09T03:06:52.853Z,87.27
2022-09-09T03:09:19.326Z,86.15
2022-09-09T03:11:45.910Z,86.12
2022-09-09T03:14:12.404Z,86.01
2022-09-09T03:16:38.969Z,84.58
2022-09-09T03:19:05.501Z,86.24
2022-09-09T03:21:31.998Z,84.91
2022-09-09T03:23:58.469Z,85.36
2022-09-09T03:26:25.529Z,85.11
2022-09-09T03:28:52.724Z,85.25
2022-09-09T03:31:20.809Z,86.31
2022-09-09T03:33:47.504Z,86.93
2022-09-09T03:36:14.062Z,85.72
2022-09-09T03:38:40.966Z,84.85
2022-09-09T03:41:08.846Z,85.23
2022-09-09T03:43:35.666Z,86.00
2022-09-09T03:46:02.186Z,85.69
2022-09-09T03:48:29.289Z,85.54
2022-09-09T03:51:01.756Z,86.11
2022-09-09T03:53:32.207Z,85.32
2022-09-09T03:56:01.071Z,85.46
2022-09-09T03:58:28.626Z,86.84
2022-09-09T04:00:56.083Z,86.53
2022-09-09T04:03:28.027Z,86.26
2022-09-09T04:05:56.434Z,86.36
2022-09-09T04:08:23.247Z,85.50
2022-09-09T04:10:50.709Z,85.26
2022-09-09T04:13:18.790Z,86.24
2022-09-09T04:15:51.293Z,86.31
2022-09-09T04:18:20.023Z,85.52
2022-09-09T04:20:51.761Z,86.37
2022-09-09T04:23:20.070Z,85.72
2022-09-09T04:25:48.066Z,86.02
2022-09-09T04:28:16.063Z,85.30
2022-09-09T04:30:43.144Z,85.42
2022-09-09T04:33:10.882Z,85.39
2022-09-09T04:35:37.868Z,86.26
2022-09-09T04:38:05.326Z,85.23
2022-09-09T04:40:32.550Z,86.48
2022-09-09T04:42:59.744Z,86.09
2022-09-09T04:45:27.301Z,85.99
2022-09-09T04:47:54.313Z,85.61
2022-09-09T04:50:20.856Z,86.54
2022-09-09T04:52:47.457Z,86.39
2022-09-09T04:55:14.076Z,87.04
2022-09-09T04:57:41.083Z,86.79
2022-09-09T05:00:08.351Z,86.24
2022-09-09T05:02:39.462Z,85.72
2022-09-09T05:05:06.840Z,86.48
2022-09-09T05:07:33.340Z,85.32
2022-09-09T05:09:59.910Z,85.88
2022-09-09T05:12:26.841Z,85.04
2022-09-09T05:14:53.715Z,84.71
2022-09-09T05:17:20.204Z,85.01
2022-09-09T05:19:46.662Z,85.61
2022-09-09T05:22:13.158Z,84.59
2022-09-09T05:24:39.861Z,84.88
2022-09-09T05:27:07.153Z,85.78
2022-09-09T05:29:37.065Z,85.81
2022-09-09T05:32:04.273Z,85.29
2022-09-09T05:34:30.714Z,85.55
2022-09-09T05:36:57.171Z,85.93
2022-09-09T05:39:23.656Z,85.76
2022-09-09T05:41:50.115Z,85.86
2022-09-09T05:44:16.678Z,85.38
2022-09-09T05:46:43.192Z,85.93
2022-09-09T05:49:09.698Z,84.81
2022-09-09T05:51:36.258Z,85.15
2022-09-09T05:54:02.754Z,84.41
2022-09-09T05:56:30.498Z,85.33
2022-09-09T05:58:57.545Z,84.45
2022-09-09T06:01:27.525Z,85.23
2022-09-09T06:03:54.392Z,83.78
2022-09-09T06:06:23.087Z,84.62
2022-09-09T06:08:52.494Z,84.24
2022-09-09T06:11:25.162Z,84.50
2022-09-09T06:13:54.709Z,84.37
2022-09-09T06:16:27.482Z,84.61
2022-09-09T06:18:57.884Z,84.08
2022-09-09T06:21:30.279Z,84.60
2022-09-09T06:24:00.846Z,85.30
2022-09-09T06:26:33.614Z,85.19
2022-09-09T06:29:00.957Z,84.65
2022-09-09T06:31:31.530Z,83.95
2022-09-09T06:33:59.664Z,84.23
2022-09-09T06:36:28.795Z,83.35
2022-09-09T06:38:55.317Z,84.38
2022-09-09T06:41:25.104Z,83.50
2022-09-09T06:43:51.568Z,83.40
2022-09-09T06:46:23.309Z,83.31
2022-09-09T06:48:50.112Z,83.61
2022-09-09T06:51:19.192Z,81.97
2022-09-09T06:53:46.866Z,83.65
2022-09-09T06:56:32.743Z,82.27
2022-09-09T06:59:04.819Z,83.53
2022-09-09T07:01:33.781Z,82.39
2022-09-09T07:04:01.645Z,82.77
2022-09-09T07:06:32.863Z,82.69
2022-09-09T07:09:01.706Z,82.48
2022-09-09T07:11:31.108Z,82.52
2022-09-09T07:14:01.737Z,82.97
2022-09-09T07:16:28.776Z,82.56
2022-09-09T07:18:58.902Z,82.95
2022-09-09T07:21:27.546Z,83.01
2022-09-09T07:23:55.514Z,84.54
2022-09-09T07:26:25.282Z,82.17
2022-09-09T07:28:51.936Z,82.19
2022-09-09T07:31:21.633Z,82.19
2022-09-09T07:33:49.300Z,83.46
2022-09-09T07:36:22.726Z,82.69
2022-09-09T07:38:54.985Z,81.69
2022-09-09T07:41:35.162Z,79.76
2022-09-09T07:44:09.710Z,80.63
2022-09-09T07:46:36.799Z,80.40
2022-09-09T07:49:04.709Z,80.82
2022-09-09T07:51:34.200Z,80.88
2022-09-09T07:54:03.322Z,80.67
2022-09-09T07:56:33.558Z,80.46
2022-09-09T07:59:00.414Z,79.83
2022-09-09T08:01:33.121Z,79.66
2022-09-09T08:04:02.287Z,80.18
2022-09-09T08:06:31.241Z,79.33
2022-09-09T08:08:57.734Z,80.77
2022-09-09T08:11:26.845Z,80.58
2022-09-09T08:13:56.108Z,80.35
2022-09-09T08:16:27.684Z,79.83
2022-09-09T08:18:55.128Z,78.30
2022-09-09T08:21:24.305Z,76.59
2022-09-09T08:23:57.656Z,78.20
2022-09-09T08:26:26.589Z,79.55
2022-09-09T08:28:55.133Z,79.03
2022-09-09T08:31:27.520Z,78.97
2022-09-09T08:33:53.978Z,77.70
2022-09-09T08:36:22.678Z,75.97
2022-09-09T08:38:55.443Z,76.95
2022-09-09T08:42:04.020Z,76.28
2022-09-09T08:45:09.724Z,76.28
2022-09-09T08:47:41.924Z,76.73
2022-09-09T08:50:25.790Z,76.50
2022-09-09T08:53:02.540Z,75.31
2022-09-09T08:55:55.738Z,74.75
2022-09-09T08:58:25.848Z,75.16
2022-09-09T09:01:01.350Z,71.05
2022-09-09T09:03:40.397Z,69.85
2022-09-09T09:06:25.130Z,69.62
2022-09-09T09:09:19.099Z,71.48
2022-09-09T09:11:49.723Z,71.18
2022-09-09T09:14:24.294Z,72.01
2022-09-09T09:16:58.112Z,72.70
2022-09-09T09:19:27.105Z,71.32
2022-09-09T09:22:12.420Z,71.31
2022-09-09T09:25:03.396Z,70.73
2022-09-09T09:27:34.569Z,68.44
2022-09-09T09:30:26.883Z,69.92
2022-09-09T09:33:14.536Z,69.63
2022-09-09T09:35:43.241Z,69.64
2022-09-09T09:41:07.674Z,67.95
2022-09-09T09:43:35.870Z,66.48
2022-09-09T09:46:17.530Z,65.99
2022-09-09T09:48:44.417Z,67.30
2022-09-09T09:51:14.899Z,67.33
2022-09-09T09:53:41.407Z,66.62
2022-09-09T09:56:13.046Z,67.65
2022-09-09T09:58:45.499Z,66.22
2022-09-09T10:01:28.988Z,64.27
2022-09-09T10:03:59.137Z,63.98
2022-09-09T10:06:34.113Z,65.88
2022-09-09T10:09:02.721Z,65.00
2022-09-09T10:11:34.365Z,65.88
2022-09-09T10:14:10.459Z,64.13
2022-09-09T10:17:04.288Z,62.96
2022-09-09T10:19:38.399Z,62.27
2022-09-09T10:22:21.057Z,63.31
2022-09-09T10:25:03.164Z,62.04
2022-09-09T10:27:41.870Z,59.41
2022-09-09T10:30:21.049Z,59.93
2022-09-09T10:33:14.575Z,61.95
2022-09-09T10:36:03.970Z,61.06
2022-09-09T10:38:54.829Z,60.29
2022-09-09T10:42:03.355Z,61.33
2022-09-09T10:45:00.295Z,60.67
2022-09-09T10:48:04.355Z,57.56
2022-09-09T10:51:04.614Z,59.13
2022-09-09T10:54:04.113Z,58.20
2022-09-09T10:56:31.399Z,57.62
2022-09-09T10:59:00.753Z,56.48
2022-09-09T11:01:32.734Z,57.28
2022-09-09T11:04:03.260Z,57.08
2022-09-09T11:06:35.815Z,56.39
2022-09-09T11:09:03.568Z,56.81
2022-09-09T11:11:38.126Z,59.14
2022-09-09T11:14:32.839Z,56.43
2022-09-09T11:17:04.917Z,56.62
2022-09-09T11:19:41.217Z,56.53
2022-09-09T11:22:22.675Z,57.19
2022-09-09T11:24:53.357Z,56.90
2022-09-09T11:27:27.397Z,58.76
2022-09-09T11:30:02.809Z,57.56
2022-09-09T11:32:48.953Z,57.63
2022-09-09T11:35:44.097Z,57.79
2022-09-09T11:38:20.617Z,58.67
2022-09-09T11:40:47.602Z,58.36
2022-09-09T11:43:25.608Z,56.42
2022-09-09T11:46:01.108Z,57.71
2022-09-09T11:48:36.416Z,56.93
2022-09-09T11:51:16.718Z,59.72
2022-09-09T11:53:52.052Z,60.16
2022-09-09T11:56:27.405Z,59.55
2022-09-09T11:59:03.073Z,55.47
2022-09-09T12:01:37.513Z,57.69
2022-09-09T12:04:10.051Z,58.85
2022-09-09T12:06:48.123Z,59.40
2022-09-09T12:09:32.907Z,57.68
2022-09-09T12:12:12.563Z,53.75
2022-09-09T12:14:56.849Z,53.84
2022-09-09T12:17:25.850Z,51.99
2022-09-09T12:20:18.380Z,50.52
2022-09-09T12:22:57.805Z,51.65
2022-09-09T12:25:54.621Z,49.67
2022-09-09T12:28:26.867Z,49.83
2022-09-09T12:31:00.156Z,55.17
2022-09-09T12:33:38.490Z,56.10
2022-09-09T12:36:07.358Z,57.91
2022-09-09T12:38:41.731Z,57.76
2022-09-09T12:41:20.662Z,57.80
2022-09-09T12:43:47.125Z,56.07
2022-09-09T12:46:22.749Z,56.54
2022-09-09T12:48:49.320Z,56.94
2022-09-09T12:51:22.478Z,53.84
2022-09-09T12:53:49.069Z,50.75
2022-09-09T12:56:34.165Z,51.53
2022-09-09T12:59:01.872Z,52.58
2022-09-09T13:01:30.878Z,53.28
2022-09-09T13:03:58.052Z,54.73
2022-09-09T13:06:28.876Z,52.91
2022-09-09T13:08:58.109Z,52.29
2022-09-09T13:11:40.593Z,51.51
2022-09-09T13:14:07.555Z,52.64
2022-09-09T13:16:40.440Z,52.48
2022-09-09T13:19:14.129Z,53.82
2022-09-09T13:21:40.804Z,54.14
2022-09-09T13:24:23.514Z,54.68
2022-09-09T13:27:04.522Z,55.66
2022-09-09T13:29:32.404Z,55.33
2022-09-09T13:32:17.351Z,55.42
2022-09-09T13:34:55.943Z,54.72
2022-09-09T13:37:31.414Z,55.06
2022-09-09T13:39:58.541Z,56.26
2022-09-09T13:42:30.589Z,55.20
2022-09-09T13:44:57.690Z,55.01
2022-09-09T13:47:35.954Z,50.16
2022-09-09T13:50:31.011Z,51.34
2022-09-09T13:52:59.592Z,51.59
2022-09-09T13:55:28.233Z,51.91
2022-09-09T13:57:59.932Z,53.25
2022-09-09T14:00:26.389Z,54.91
2022-09-09T14:02:53.466Z,53.60
2022-09-09T14:05:20.468Z,54.22
2022-09-09T14:07:50.169Z,53.41
2022-09-09T14:10:19.161Z,51.70
2022-09-09T14:12:45.630Z,54.73
2022-09-09T14:15:13.356Z,55.76
2022-09-09T14:17:39.958Z,55.18
2022-09-09T14:20:08.698Z,56.99
2022-09-09T14:22:35.650Z,57.72
2022-09-09T14:25:02.433Z,58.26
2022-09-09T14:27:29.549Z,58.02
2022-09-09T14:29:56.164Z,59.00
2022-09-09T14:32:23.003Z,60.69
2022-09-09T14:34:52.347Z,61.30
2022-09-09T14:37:19.477Z,63.43
2022-09-09T14:39:47.962Z,63.23
2022-09-09T14:42:15.061Z,66.28
2022-09-09T14:44:41.756Z,68.73
2022-09-09T14:47:11.555Z,72.92
2022-09-09T14:49:39.817Z,78.22
2022-09-09T14:52:10.394Z,79.04
2022-09-09T14:54:36.885Z,76.51
2022-09-09T14:57:03.388Z,76.54
2022-09-09T14:59:29.846Z,75.36
2022-09-09T15:01:56.315Z,75.14
2022-09-09T15:04:23.009Z,75.03
2022-09-09T15:06:50.906Z,74.49
2022-09-09T15:09:17.535Z,74.03
2022-09-09T15:11:45.286Z,74.06
2022-09-09T15:14:13.058Z,72.34
2022-09-09T15:16:40.702Z,72.33
2022-09-09T15:19:07.362Z,73.45
2022-09-09T15:21:36.514Z,73.16
2022-09-09T15:24:03.061Z,73.51
2022-09-09T15:26:30.922Z,74.55
2022-09-09T15:29:00.418Z,74.99
2022-09-09T15:31:31.477Z,75.78
2022-09-09T15:34:02.828Z,76.54
2022-09-09T15:36:38.216Z,76.67
2022-09-09T15:39:07.136Z,76.58
2022-09-09T15:41:33.689Z,76.61
2022-09-09T15:44:01.511Z,76.18
2022-09-09T15:46:31.286Z,76.59
2022-09-09T15:49:00.201Z,76.32
2022-09-09T15:51:43.937Z,77.08
2022-09-09T15:54:13.292Z,76.93
2022-09-09T15:56:40.533Z,77.41
2022-09-09T15:59:07.124Z,77.53
2022-09-09T16:01:34.458Z,76.62
2022-09-09T16:04:01.222Z,77.65
2022-09-09T16:06:29.402Z,78.49
2022-09-09T16:08:57.602Z,78.38
2022-09-09T16:11:28.814Z,78.53
2022-09-09T16:13:56.552Z,77.80
2022-09-09T16:16:25.408Z,77.32
2022-09-09T16:18:55.271Z,77.61
2022-09-09T16:21:33.277Z,78.27
2022-09-09T16:24:01.413Z,78.42
2022-09-09T16:26:29.326Z,77.51
2022-09-09T16:28:55.871Z,79.01
2022-09-09T16:31:24.260Z,78.36
2022-09-09T16:33:51.581Z,78.58
2022-09-09T16:36:21.232Z,78.08
2022-09-09T16:38:47.790Z,78.42
2022-09-09T16:41:15.485Z,77.85
2022-09-09T16:43:42.261Z,78.27
2022-09-09T16:46:19.472Z,78.57
2022-09-09T16:48:47.041Z,78.67
2022-09-09T16:51:19.065Z,78.08
2022-09-09T16:53:46.191Z,79.49
2022-09-09T16:56:26.003Z,80.83
2022-09-09T16:58:56.608Z,79.50
2022-09-09T17:01:28.397Z,80.22
2022-09-09T17:04:01.358Z,79.96
2022-09-09T17:06:30.092Z,78.75
2022-09-09T17:09:05.079Z,82.03
2022-09-09T17:11:31.602Z,81.54
2022-09-09T17:14:01.905Z,82.13
2022-09-09T17:16:31.156Z,82.77
2022-09-09T17:18:59.527Z,82.65
2022-09-09T17:21:27.235Z,81.73
2022-09-09T17:23:53.998Z,83.22
2022-09-09T17:26:22.445Z,81.37
2022-09-09T17:28:48.936Z,81.30
2022-09-09T17:31:18.191Z,80.99
2022-09-09T17:33:47.105Z,80.58
2022-09-09T17:36:19.269Z,80.36
2022-09-09T17:38:46.454Z,80.39
2022-09-09T17:41:14.698Z,81.00
2022-09-09T17:43:41.479Z,80.57
2022-09-09T17:46:16.775Z,81.19
2022-09-09T17:48:45.551Z,80.74
2022-09-09T17:51:19.842Z,80.26
2022-09-09T17:53:48.260Z,81.16
2022-09-09T17:56:17.277Z,79.68
2022-09-09T17:58:45.332Z,79.78
2022-09-09T18:01:39.593Z,80.95
2022-09-09T18:04:08.097Z,80.77
2022-09-09T18:06:39.902Z,80.13
2022-09-09T18:09:09.645Z,80.33
2022-09-09T18:11:42.507Z,82.02
2022-09-09T18:14:10.722Z,81.66
2022-09-09T18:16:37.836Z,79.89
2022-09-09T18:19:06.394Z,80.03
2022-09-09T18:21:33.958Z,79.37
2022-09-09T18:24:05.307Z,78.84
2022-09-09T18:26:33.748Z,79.42
2022-09-09T18:29:03.740Z,79.80
2022-09-09T18:31:30.693Z,79.59
2022-09-09T18:33:59.496Z,80.24
2022-09-09T18:36:32.623Z,79.57
2022-09-09T18:39:00.602Z,80.39
2022-09-09T18:41:33.319Z,80.82
2022-09-09T18:44:02.395Z,80.65
2022-09-09T18:46:30.955Z,80.13
2022-09-09T18:48:57.806Z,79.68
2022-09-09T18:51:26.975Z,79.34
2022-09-09T18:53:58.746Z,79.49
2022-09-09T18:56:25.234Z,80.25
2022-09-09T18:58:56.352Z,80.10
2022-09-09T19:01:23.946Z,80.00
2022-09-09T19:03:51.335Z,81.18
2022-09-09T19:06:19.978Z,81.85
2022-09-09T19:08:47.070Z,82.17
2022-09-09T19:11:16.576Z,83.90
2022-09-09T19:13:43.760Z,82.95
2022-09-09T19:16:13.718Z,82.33
2022-09-09T19:18:41.259Z,81.33
2022-09-09T19:21:11.636Z,83.29
2022-09-09T19:23:39.077Z,82.76
2022-09-09T19:26:06.456Z,82.55
2022-09-09T19:28:36.141Z,81.51
2022-09-09T19:31:07.623Z,81.41
2022-09-09T19:33:34.178Z,82.21
2022-09-09T19:36:02.450Z,84.18
2022-09-09T19:38:30.418Z,84.29
2022-09-09T19:40:57.130Z,84.45
2022-09-09T19:43:24.756Z,84.29
2022-09-09T19:45:58.914Z,84.65
2022-09-09T19:48:26.996Z,83.20
2022-09-09T19:50:54.910Z,84.70
2022-09-09T19:53:21.790Z,85.21
2022-09-09T19:55:51.524Z,85.97
2022-09-09T19:58:18.489Z,84.41
2022-09-09T20:00:45.668Z,84.60
2022-09-09T20:03:19.153Z,85.74
2022-09-09T20:05:49.313Z,84.60
2022-09-09T20:08:15.861Z,84.98
2022-09-09T20:10:51.461Z,84.44
2022-09-09T20:13:18.240Z,82.96
2022-09-09T20:15:44.783Z,83.31
2022-09-09T20:18:11.286Z,81.27
2022-09-09T20:20:42.718Z,81.39
2022-09-09T20:23:09.340Z,82.32
2022-09-09T20:25:37.538Z,81.85
2022-09-09T20:28:04.129Z,82.80
2022-09-09T20:30:31.127Z,82.65
2022-09-09T20:32:57.590Z,81.63
2022-09-09T20:35:24.577Z,82.07
2022-09-09T20:37:51.017Z,81.75
2022-09-09T20:40:17.453Z,81.80
2022-09-09T20:42:43.898Z,81.63
2022-09-09T20:45:16.127Z,82.63
2022-09-09T20:47:42.594Z,81.96
2022-09-09T20:50:10.544Z,82.70
2022-09-09T20:52:37.447Z,83.38
2022-09-09T20:55:04.643Z,82.53
2022-09-09T20:57:31.164Z,82.66
2022-09-09T20:59:57.584Z,81.76
2022-09-09T21:02:24.185Z,81.69
2022-09-09T21:04:50.640Z,82.43
2022-09-09T21:07:17.116Z,82.92
2022-09-09T21:09:43.826Z,81.24
2022-09-09T21:12:10.449Z,81.15
2022-09-09T21:14:36.957Z,81.89
2022-09-09T21:17:03.513Z,81.66
2022-09-09T21:19:30.155Z,81.99
2022-09-09T21:21:57.101Z,82.40
2022-09-09T21:24:23.603Z,82.71
2022-09-09T21:26:50.087Z,80.65
2022-09-09T21:29:16.548Z,82.30
2022-09-09T21:31:43.548Z,83.25
2022-09-09T21:34:10.171Z,82.50
2022-09-09T21:36:36.625Z,82.04
2022-09-09T21:39:03.108Z,81.41
2022-09-09T21:41:29.580Z,82.72
2022-09-09T21:43:56.719Z,83.81
2022-09-09T21:46:23.908Z,82.19
2022-09-09T21:48:50.780Z,81.75
2022-09-09T21:51:17.567Z,81.42
2022-09-09T21:53:44.410Z,80.86
2022-09-09T21:56:14.484Z,82.17
2022-09-09T21:58:41.785Z,81.60
2022-09-09T22:01:13.202Z,82.10
2022-09-09T22:03:39.841Z,82.26
2022-09-09T22:06:08.516Z,81.67
2022-09-09T22:08:36.112Z,82.09
2022-09-09T22:11:07.969Z,82.08
2022-09-09T22:13:35.798Z,82.51
2022-09-09T22:16:04.265Z,82.57
2022-09-09T22:18:32.134Z,81.47
2022-09-09T22:21:01.893Z,81.63
2022-09-09T22:23:30.970Z,81.28
2022-09-09T22:25:57.420Z,81.82
2022-09-09T22:28:23.875Z,81.19
2022-09-09T22:30:50.366Z,82.15
2022-09-09T22:33:16.871Z,82.83
2022-09-09T22:35:43.852Z,82.41
2022-09-09T22:38:10.989Z,82.22
2022-09-09T22:40:41.422Z,82.98
2022-09-09T22:43:14.493Z,83.04
2022-09-09T22:45:42.021Z,81.96
2022-09-09T22:48:08.501Z,81.45
2022-09-09T22:50:38.929Z,82.80
2022-09-09T22:53:08.616Z,82.74
2022-09-09T22:55:35.135Z,83.68
2022-09-09T22:58:01.709Z,82.54
2022-09-09T23:00:29.152Z,82.92
2022-09-09T23:02:56.189Z,82.27
2022-09-09T23:05:27.523Z,82.64
2022-09-09T23:07:58.380Z,81.82
2022-09-09T23:10:25.259Z,81.85
2022-09-09T23:12:52.431Z,82.25
2022-09-09T23:15:19.835Z,81.41
2022-09-09T23:17:46.481Z,81.89
2022-09-09T23:20:12.997Z,82.08
2022-09-09T23:22:40.556Z,81.28
2022-09-09T23:25:07.738Z,82.33
2022-09-09T23:27:34.793Z,82.46
2022-09-09T23:30:01.585Z,83.56
2022-09-09T23:32:28.136Z,84.55
2022-09-09T23:34:54.829Z,83.19
2022-09-09T23:37:21.305Z,83.67
2022-09-09T23:39:48.491Z,85.86
2022-09-09T23:42:15.249Z,85.83
2022-09-09T23:44:42.142Z,83.87
2022-09-09T23:47:09.413Z,83.31
2022-09-09T23:49:39.513Z,83.27
2022-09-09T23:52:06.723Z,83.54
2022-09-09T23:54:34.889Z,83.56
2022-09-09T23:57:05.569Z,83.03
2022-09-09T23:59:32.092Z,82.51
